sensor_id;sensor_type;location;lat;lon;timestamp;P1;durP1;ratioP1;P2;durP2;ratioP2
45402;SDS011;47427;51.976;5.326;2022-11-12T00:02:56;20.70;;;15.60;;
45402;SDS011;47427;51.976;5.326;2022-11-12T00:06:37;20.63;;;14.55;;
45402;SDS011;47427;51.976;5.326;2022-11-12T00:10:38;23.13;;;15.43;;
45402;SDS011;47427;51.976;5.326;2022-11-12T00:14:18;23.45;;;16.20;;
45402;SDS011;47427;51.976;5.326;2022-11-12T00:17:58;23.10;;;15.27;;
45402;SDS011;47427;51.976;5.326;2022-11-12T00:21:38;20.90;;;15.82;;
45402;SDS011;47427;51.976;5.326;2022-11-12T00:25:18;20.38;;;15.77;;
45402;SDS011;47427;51.976;5.326;2022-11-12T00:28:59;22.35;;;16.80;;
45402;SDS011;47427;51.976;5.326;2022-11-12T00:32:39;26.67;;;18.60;;
45402;SDS011;47427;51.976;5.326;2022-11-12T00:36:19;27.10;;;19.65;;
45402;SDS011;47427;51.976;5.326;2022-11-12T00:40:00;26.55;;;17.67;;
45402;SDS011;47427;51.976;5.326;2022-11-12T00:43:40;23.45;;;18.73;;
45402;SDS011;47427;51.976;5.326;2022-11-12T00:47:20;28.42;;;20.45;;
45402;SDS011;47427;51.976;5.326;2022-11-12T00:51:01;27.80;;;20.90;;
45402;SDS011;47427;51.976;5.326;2022-11-12T00:54:43;31.52;;;20.75;;
45402;SDS011;47427;51.976;5.326;2022-11-12T00:58:24;26.55;;;18.20;;
45402;SDS011;47427;51.976;5.326;2022-11-12T01:02:04;23.42;;;18.27;;
45402;SDS011;47427;51.976;5.326;2022-11-12T01:05:44;31.90;;;18.08;;
45402;SDS011;47427;51.976;5.326;2022-11-12T01:09:24;25.90;;;18.17;;
45402;SDS011;47427;51.976;5.326;2022-11-12T01:13:04;31.15;;;20.67;;
45402;SDS011;47427;51.976;5.326;2022-11-12T01:16:45;31.05;;;21.80;;
45402;SDS011;47427;51.976;5.326;2022-11-12T01:20:25;23.58;;;19.73;;
45402;SDS011;47427;51.976;5.326;2022-11-12T01:24:05;28.90;;;20.75;;
45402;SDS011;47427;51.976;5.326;2022-11-12T01:27:46;27.67;;;21.05;;
45402;SDS011;47427;51.976;5.326;2022-11-12T01:31:29;27.70;;;21.80;;
45402;SDS011;47427;51.976;5.326;2022-11-12T01:35:11;27.90;;;21.17;;
45402;SDS011;47427;51.976;5.326;2022-11-12T01:38:52;26.63;;;20.75;;
45402;SDS011;47427;51.976;5.326;2022-11-12T01:42:32;28.67;;;22.30;;
45402;SDS011;47427;51.976;5.326;2022-11-12T01:46:20;26.45;;;19.27;;
45402;SDS011;47427;51.976;5.326;2022-11-12T01:50:28;26.13;;;20.58;;
45402;SDS011;47427;51.976;5.326;2022-11-12T01:54:12;29.75;;;21.55;;
45402;SDS011;47427;51.976;5.326;2022-11-12T01:58:04;23.80;;;19.15;;
45402;SDS011;47427;51.976;5.326;2022-11-12T02:01:58;33.78;;;25.20;;
45402;SDS011;47427;51.976;5.326;2022-11-12T02:05:39;34.50;;;24.02;;
45402;SDS011;47427;51.976;5.326;2022-11-12T02:09:20;40.28;;;27.40;;
45402;SDS011;47427;51.976;5.326;2022-11-12T02:13:01;39.03;;;28.70;;
45402;SDS011;47427;51.976;5.326;2022-11-12T02:17:00;39.03;;;28.65;;
45402;SDS011;47427;51.976;5.326;2022-11-12T02:20:40;36.30;;;26.35;;
45402;SDS011;47427;51.976;5.326;2022-11-12T02:28:05;33.83;;;24.58;;
45402;SDS011;47427;51.976;5.326;2022-11-12T02:31:46;29.55;;;23.27;;
45402;SDS011;47427;51.976;5.326;2022-11-12T02:35:27;37.28;;;25.38;;
45402;SDS011;47427;51.976;5.326;2022-11-12T02:39:07;38.15;;;24.98;;
45402;SDS011;47427;51.976;5.326;2022-11-12T02:42:47;31.45;;;24.15;;
45402;SDS011;47427;51.976;5.326;2022-11-12T02:46:27;35.80;;;26.15;;
45402;SDS011;47427;51.976;5.326;2022-11-12T02:50:08;36.97;;;26.48;;
45402;SDS011;47427;51.976;5.326;2022-11-12T02:53:48;38.92;;;27.70;;
45402;SDS011;47427;51.976;5.326;2022-11-12T02:57:29;37.42;;;26.20;;
45402;SDS011;47427;51.976;5.326;2022-11-12T03:01:09;46.20;;;27.08;;
45402;SDS011;47427;51.976;5.326;2022-11-12T03:04:49;37.47;;;26.85;;
45402;SDS011;47427;51.976;5.326;2022-11-12T03:08:29;36.10;;;26.10;;
45402;SDS011;47427;51.976;5.326;2022-11-12T03:12:09;33.63;;;26.23;;
45402;SDS011;47427;51.976;5.326;2022-11-12T03:15:49;32.83;;;25.08;;
45402;SDS011;47427;51.976;5.326;2022-11-12T03:19:38;41.17;;;27.92;;
45402;SDS011;47427;51.976;5.326;2022-11-12T03:23:19;41.03;;;27.05;;
45402;SDS011;47427;51.976;5.326;2022-11-12T03:26:59;46.55;;;31.73;;
45402;SDS011;47427;51.976;5.326;2022-11-12T03:30:40;41.35;;;30.02;;
45402;SDS011;47427;51.976;5.326;2022-11-12T03:34:21;39.88;;;28.25;;
45402;SDS011;47427;51.976;5.326;2022-11-12T03:38:02;38.40;;;27.05;;
45402;SDS011;47427;51.976;5.326;2022-11-12T03:41:43;40.08;;;28.27;;
45402;SDS011;47427;51.976;5.326;2022-11-12T03:45:24;36.70;;;26.00;;
45402;SDS011;47427;51.976;5.326;2022-11-12T03:49:05;37.45;;;25.98;;
45402;SDS011;47427;51.976;5.326;2022-11-12T03:52:46;37.72;;;28.38;;
45402;SDS011;47427;51.976;5.326;2022-11-12T03:56:28;39.88;;;27.35;;
45402;SDS011;47427;51.976;5.326;2022-11-12T04:00:09;36.60;;;26.85;;
45402;SDS011;47427;51.976;5.326;2022-11-12T04:03:51;33.55;;;26.45;;
45402;SDS011;47427;51.976;5.326;2022-11-12T04:07:31;40.83;;;28.40;;
45402;SDS011;47427;51.976;5.326;2022-11-12T04:11:30;33.97;;;26.35;;
45402;SDS011;47427;51.976;5.326;2022-11-12T04:15:11;40.47;;;28.30;;
45402;SDS011;47427;51.976;5.326;2022-11-12T04:18:52;40.65;;;28.52;;
45402;SDS011;47427;51.976;5.326;2022-11-12T04:22:53;39.60;;;29.73;;
45402;SDS011;47427;51.976;5.326;2022-11-12T04:26:34;42.33;;;28.25;;
45402;SDS011;47427;51.976;5.326;2022-11-12T04:30:14;37.80;;;28.40;;
45402;SDS011;47427;51.976;5.326;2022-11-12T04:33:54;39.38;;;28.42;;
45402;SDS011;47427;51.976;5.326;2022-11-12T04:37:54;42.65;;;27.85;;
45402;SDS011;47427;51.976;5.326;2022-11-12T04:41:35;49.28;;;30.70;;
45402;SDS011;47427;51.976;5.326;2022-11-12T04:45:34;40.55;;;28.80;;
45402;SDS011;47427;51.976;5.326;2022-11-12T04:49:16;40.58;;;28.67;;
45402;SDS011;47427;51.976;5.326;2022-11-12T04:52:56;46.72;;;29.83;;
45402;SDS011;47427;51.976;5.326;2022-11-12T04:56:36;39.72;;;28.63;;
45402;SDS011;47427;51.976;5.326;2022-11-12T05:00:17;38.08;;;27.67;;
45402;SDS011;47427;51.976;5.326;2022-11-12T05:03:57;41.20;;;28.45;;
45402;SDS011;47427;51.976;5.326;2022-11-12T05:07:37;33.53;;;24.98;;
45402;SDS011;47427;51.976;5.326;2022-11-12T05:11:18;39.60;;;25.83;;
45402;SDS011;47427;51.976;5.326;2022-11-12T05:14:58;36.95;;;27.50;;
45402;SDS011;47427;51.976;5.326;2022-11-12T05:18:38;37.78;;;25.08;;
45402;SDS011;47427;51.976;5.326;2022-11-12T05:22:18;40.92;;;25.67;;
45402;SDS011;47427;51.976;5.326;2022-11-12T05:25:58;37.03;;;26.42;;
45402;SDS011;47427;51.976;5.326;2022-11-12T05:29:38;34.95;;;24.35;;
45402;SDS011;47427;51.976;5.326;2022-11-12T05:33:20;34.88;;;24.15;;
45402;SDS011;47427;51.976;5.326;2022-11-12T05:37:01;31.25;;;24.83;;
45402;SDS011;47427;51.976;5.326;2022-11-12T05:40:43;36.42;;;24.35;;
45402;SDS011;47427;51.976;5.326;2022-11-12T05:44:23;34.22;;;24.02;;
45402;SDS011;47427;51.976;5.326;2022-11-12T05:48:04;36.67;;;25.77;;
45402;SDS011;47427;51.976;5.326;2022-11-12T05:51:44;28.67;;;23.38;;
45402;SDS011;47427;51.976;5.326;2022-11-12T05:55:24;38.05;;;24.10;;
45402;SDS011;47427;51.976;5.326;2022-11-12T05:59:06;30.15;;;21.73;;
45402;SDS011;47427;51.976;5.326;2022-11-12T06:02:48;33.20;;;23.95;;
45402;SDS011;47427;51.976;5.326;2022-11-12T06:06:28;33.80;;;22.85;;
45402;SDS011;47427;51.976;5.326;2022-11-12T06:10:08;36.83;;;22.27;;
45402;SDS011;47427;51.976;5.326;2022-11-12T06:13:49;29.10;;;21.33;;
45402;SDS011;47427;51.976;5.326;2022-11-12T06:17:29;25.48;;;19.02;;
45402;SDS011;47427;51.976;5.326;2022-11-12T06:21:09;26.23;;;20.02;;
45402;SDS011;47427;51.976;5.326;2022-11-12T06:25:05;31.67;;;22.02;;
45402;SDS011;47427;51.976;5.326;2022-11-12T06:28:46;28.17;;;20.08;;
45402;SDS011;47427;51.976;5.326;2022-11-12T06:32:27;26.55;;;19.77;;
45402;SDS011;47427;51.976;5.326;2022-11-12T06:36:09;36.03;;;23.42;;
45402;SDS011;47427;51.976;5.326;2022-11-12T06:39:51;39.08;;;24.40;;
45402;SDS011;47427;51.976;5.326;2022-11-12T06:43:32;30.88;;;20.45;;
45402;SDS011;47427;51.976;5.326;2022-11-12T06:47:21;29.95;;;21.30;;
45402;SDS011;47427;51.976;5.326;2022-11-12T06:51:14;30.25;;;21.10;;
45402;SDS011;47427;51.976;5.326;2022-11-12T06:54:59;28.42;;;20.33;;
45402;SDS011;47427;51.976;5.326;2022-11-12T06:58:39;30.90;;;19.80;;
45402;SDS011;47427;51.976;5.326;2022-11-12T07:02:20;24.38;;;18.48;;
45402;SDS011;47427;51.976;5.326;2022-11-12T07:06:04;83.95;;;52.75;;
45402;SDS011;47427;51.976;5.326;2022-11-12T07:09:47;30.60;;;20.92;;
45402;SDS011;47427;51.976;5.326;2022-11-12T07:13:29;24.25;;;19.52;;
45402;SDS011;47427;51.976;5.326;2022-11-12T07:17:11;43.92;;;32.65;;
45402;SDS011;47427;51.976;5.326;2022-11-12T07:20:55;33.08;;;24.85;;
45402;SDS011;47427;51.976;5.326;2022-11-12T07:24:37;35.33;;;24.13;;
45402;SDS011;47427;51.976;5.326;2022-11-12T07:28:18;92.47;;;52.22;;
45402;SDS011;47427;51.976;5.326;2022-11-12T07:31:58;39.42;;;25.65;;
45402;SDS011;47427;51.976;5.326;2022-11-12T07:35:38;90.13;;;56.58;;
45402;SDS011;47427;51.976;5.326;2022-11-12T07:39:18;43.40;;;30.25;;
45402;SDS011;47427;51.976;5.326;2022-11-12T07:42:58;27.00;;;19.67;;
45402;SDS011;47427;51.976;5.326;2022-11-12T07:46:38;32.38;;;22.58;;
45402;SDS011;47427;51.976;5.326;2022-11-12T07:50:18;23.98;;;17.85;;
45402;SDS011;47427;51.976;5.326;2022-11-12T07:53:59;26.73;;;19.02;;
45402;SDS011;47427;51.976;5.326;2022-11-12T07:57:39;28.33;;;20.20;;
45402;SDS011;47427;51.976;5.326;2022-11-12T08:01:32;23.25;;;17.08;;
45402;SDS011;47427;51.976;5.326;2022-11-12T08:05:14;25.27;;;19.60;;
45402;SDS011;47427;51.976;5.326;2022-11-12T08:08:54;23.83;;;17.83;;
45402;SDS011;47427;51.976;5.326;2022-11-12T08:12:36;26.90;;;18.15;;
45402;SDS011;47427;51.976;5.326;2022-11-12T08:16:16;28.52;;;19.08;;
45402;SDS011;47427;51.976;5.326;2022-11-12T08:19:57;19.65;;;15.18;;
45402;SDS011;47427;51.976;5.326;2022-11-12T08:23:37;21.25;;;14.48;;
45402;SDS011;47427;51.976;5.326;2022-11-12T08:27:17;17.17;;;13.13;;
45402;SDS011;47427;51.976;5.326;2022-11-12T08:31:01;16.77;;;13.48;;
45402;SDS011;47427;51.976;5.326;2022-11-12T08:34:47;13.68;;;10.98;;
45402;SDS011;47427;51.976;5.326;2022-11-12T08:38:27;17.17;;;12.68;;
45402;SDS011;47427;51.976;5.326;2022-11-12T08:42:07;15.50;;;12.10;;
45402;SDS011;47427;51.976;5.326;2022-11-12T08:45:48;18.35;;;12.40;;
45402;SDS011;47427;51.976;5.326;2022-11-12T08:49:28;19.80;;;15.75;;
45402;SDS011;47427;51.976;5.326;2022-11-12T08:53:10;17.48;;;12.60;;
45402;SDS011;47427;51.976;5.326;2022-11-12T08:56:51;19.02;;;12.32;;
45402;SDS011;47427;51.976;5.326;2022-11-12T09:00:41;23.50;;;14.93;;
45402;SDS011;47427;51.976;5.326;2022-11-12T09:04:22;22.42;;;14.13;;
45402;SDS011;47427;51.976;5.326;2022-11-12T09:08:03;20.30;;;13.07;;
45402;SDS011;47427;51.976;5.326;2022-11-12T09:11:47;16.42;;;11.20;;
45402;SDS011;47427;51.976;5.326;2022-11-12T09:15:28;12.50;;;11.20;;
45402;SDS011;47427;51.976;5.326;2022-11-12T09:19:09;13.88;;;12.23;;
45402;SDS011;47427;51.976;5.326;2022-11-12T09:22:49;13.95;;;10.63;;
45402;SDS011;47427;51.976;5.326;2022-11-12T09:26:30;14.23;;;11.18;;
45402;SDS011;47427;51.976;5.326;2022-11-12T09:30:11;12.18;;;10.52;;
45402;SDS011;47427;51.976;5.326;2022-11-12T09:33:51;11.88;;;10.75;;
45402;SDS011;47427;51.976;5.326;2022-11-12T09:37:31;10.70;;;9.63;;
45402;SDS011;47427;51.976;5.326;2022-11-12T09:53:12;14.15;;;10.15;;
45402;SDS011;47427;51.976;5.326;2022-11-12T09:57:01;10.85;;;9.75;;
45402;SDS011;47427;51.976;5.326;2022-11-12T10:00:46;14.23;;;10.18;;
45402;SDS011;47427;51.976;5.326;2022-11-12T10:12:33;12.38;;;9.77;;
45402;SDS011;47427;51.976;5.326;2022-11-12T10:17:00;11.15;;;8.75;;
45402;SDS011;47427;51.976;5.326;2022-11-12T10:25:11;12.35;;;9.32;;
45402;SDS011;47427;51.976;5.326;2022-11-12T10:33:18;12.20;;;9.85;;
45402;SDS011;47427;51.976;5.326;2022-11-12T10:37:17;12.23;;;10.98;;
45402;SDS011;47427;51.976;5.326;2022-11-12T10:41:12;13.65;;;11.00;;
45402;SDS011;47427;51.976;5.326;2022-11-12T10:45:20;12.00;;;10.60;;
45402;SDS011;47427;51.976;5.326;2022-11-12T10:49:03;11.68;;;10.52;;
45402;SDS011;47427;51.976;5.326;2022-11-12T10:53:06;15.35;;;10.45;;
45402;SDS011;47427;51.976;5.326;2022-11-12T10:56:49;13.65;;;10.32;;
45402;SDS011;47427;51.976;5.326;2022-11-12T11:00:30;12.27;;;11.07;;
45402;SDS011;47427;51.976;5.326;2022-11-12T11:13:06;13.07;;;11.13;;
45402;SDS011;47427;51.976;5.326;2022-11-12T11:17:04;15.93;;;11.77;;
45402;SDS011;47427;51.976;5.326;2022-11-12T11:20:53;12.63;;;10.33;;
45402;SDS011;47427;51.976;5.326;2022-11-12T11:28:46;11.90;;;9.95;;
45402;SDS011;47427;51.976;5.326;2022-11-12T11:32:59;12.45;;;10.88;;
45402;SDS011;47427;51.976;5.326;2022-11-12T11:37:17;16.17;;;11.35;;
45402;SDS011;47427;51.976;5.326;2022-11-12T11:49:51;12.23;;;10.52;;
45402;SDS011;47427;51.976;5.326;2022-11-12T11:57:49;14.82;;;10.27;;
45402;SDS011;47427;51.976;5.326;2022-11-12T12:10:38;13.18;;;8.88;;
45402;SDS011;47427;51.976;5.326;2022-11-12T12:25:47;8.57;;;7.77;;
45402;SDS011;47427;51.976;5.326;2022-11-12T12:29:47;9.75;;;7.00;;
45402;SDS011;47427;51.976;5.326;2022-11-12T12:37:40;10.75;;;7.28;;
45402;SDS011;47427;51.976;5.326;2022-11-12T12:42:05;8.00;;;7.20;;
45402;SDS011;47427;51.976;5.326;2022-11-12T12:46:20;8.00;;;7.18;;
45402;SDS011;47427;51.976;5.326;2022-11-12T12:50:06;8.32;;;7.53;;
45402;SDS011;47427;51.976;5.326;2022-11-12T12:53:53;14.10;;;8.60;;
45402;SDS011;47427;51.976;5.326;2022-11-12T12:57:37;8.50;;;7.28;;
45402;SDS011;47427;51.976;5.326;2022-11-12T13:05:01;12.35;;;7.18;;
45402;SDS011;47427;51.976;5.326;2022-11-12T13:08:42;7.22;;;6.60;;
45402;SDS011;47427;51.976;5.326;2022-11-12T13:12:22;13.50;;;7.82;;
45402;SDS011;47427;51.976;5.326;2022-11-12T13:20:33;10.55;;;9.55;;
45402;SDS011;47427;51.976;5.326;2022-11-12T13:24:21;7.30;;;6.60;;
45402;SDS011;47427;51.976;5.326;2022-11-12T13:33:16;11.98;;;8.05;;
45402;SDS011;47427;51.976;5.326;2022-11-12T13:37:11;6.80;;;6.20;;
45402;SDS011;47427;51.976;5.326;2022-11-12T13:45:20;10.40;;;6.88;;
45402;SDS011;47427;51.976;5.326;2022-11-12T13:49:09;8.75;;;6.80;;
45402;SDS011;47427;51.976;5.326;2022-11-12T13:52:53;7.25;;;6.05;;
45402;SDS011;47427;51.976;5.326;2022-11-12T13:56:34;8.30;;;6.25;;
45402;SDS011;47427;51.976;5.326;2022-11-12T14:03:55;6.28;;;5.57;;
45402;SDS011;47427;51.976;5.326;2022-11-12T14:16:04;6.05;;;5.47;;
45402;SDS011;47427;51.976;5.326;2022-11-12T14:20:19;28.10;;;23.48;;
45402;SDS011;47427;51.976;5.326;2022-11-12T14:24:09;39.53;;;29.37;;
45402;SDS011;47427;51.976;5.326;2022-11-12T14:27:52;18.95;;;15.90;;
45402;SDS011;47427;51.976;5.326;2022-11-12T14:31:34;23.27;;;16.38;;
45402;SDS011;47427;51.976;5.326;2022-11-12T14:39:09;11.55;;;9.57;;
45402;SDS011;47427;51.976;5.326;2022-11-12T14:42:49;13.10;;;10.13;;
45402;SDS011;47427;51.976;5.326;2022-11-12T14:46:47;19.38;;;11.95;;
45402;SDS011;47427;51.976;5.326;2022-11-12T14:50:35;19.58;;;12.27;;
45402;SDS011;47427;51.976;5.326;2022-11-12T14:54:17;13.60;;;11.57;;
45402;SDS011;47427;51.976;5.326;2022-11-12T14:58:13;13.50;;;11.80;;
45402;SDS011;47427;51.976;5.326;2022-11-12T15:02:13;13.23;;;11.73;;
45402;SDS011;47427;51.976;5.326;2022-11-12T15:09:40;15.45;;;11.40;;
45402;SDS011;47427;51.976;5.326;2022-11-12T15:13:21;18.60;;;11.43;;
45402;SDS011;47427;51.976;5.326;2022-11-12T15:17:04;15.52;;;11.13;;
45402;SDS011;47427;51.976;5.326;2022-11-12T15:20:45;13.63;;;11.40;;
45402;SDS011;47427;51.976;5.326;2022-11-12T15:25:09;15.85;;;11.02;;
45402;SDS011;47427;51.976;5.326;2022-11-12T15:37:01;15.32;;;11.77;;
45402;SDS011;47427;51.976;5.326;2022-11-12T15:40:45;13.75;;;11.90;;
45402;SDS011;47427;51.976;5.326;2022-11-12T15:44:31;12.75;;;10.93;;
45402;SDS011;47427;51.976;5.326;2022-11-12T15:48:14;15.35;;;12.30;;
45402;SDS011;47427;51.976;5.326;2022-11-12T15:51:55;13.45;;;11.75;;
45402;SDS011;47427;51.976;5.326;2022-11-12T15:55:35;19.23;;;12.65;;
45402;SDS011;47427;51.976;5.326;2022-11-12T15:59:17;15.48;;;12.07;;
45402;SDS011;47427;51.976;5.326;2022-11-12T16:03:16;22.77;;;13.88;;
45402;SDS011;47427;51.976;5.326;2022-11-12T16:06:59;14.48;;;12.55;;
45402;SDS011;47427;51.976;5.326;2022-11-12T16:10:40;17.42;;;15.07;;
45402;SDS011;47427;51.976;5.326;2022-11-12T16:14:21;18.70;;;15.77;;
45402;SDS011;47427;51.976;5.326;2022-11-12T16:18:01;20.30;;;14.73;;
45402;SDS011;47427;51.976;5.326;2022-11-12T16:21:42;16.05;;;13.30;;
45402;SDS011;47427;51.976;5.326;2022-11-12T16:25:22;20.10;;;16.45;;
45402;SDS011;47427;51.976;5.326;2022-11-12T16:29:09;15.48;;;13.88;;
45402;SDS011;47427;51.976;5.326;2022-11-12T16:32:52;19.17;;;17.02;;
45402;SDS011;47427;51.976;5.326;2022-11-12T16:36:34;22.05;;;16.45;;
45402;SDS011;47427;51.976;5.326;2022-11-12T16:40:16;30.83;;;21.13;;
45402;SDS011;47427;51.976;5.326;2022-11-12T16:44:05;21.85;;;16.92;;
45402;SDS011;47427;51.976;5.326;2022-11-12T16:47:49;19.83;;;16.83;;
45402;SDS011;47427;51.976;5.326;2022-11-12T16:51:32;23.55;;;17.67;;
45402;SDS011;47427;51.976;5.326;2022-11-12T16:55:13;23.08;;;18.58;;
45402;SDS011;47427;51.976;5.326;2022-11-12T16:58:54;17.05;;;14.98;;
45402;SDS011;47427;51.976;5.326;2022-11-12T17:02:34;26.08;;;17.73;;
45402;SDS011;47427;51.976;5.326;2022-11-12T17:06:14;24.27;;;16.95;;
45402;SDS011;47427;51.976;5.326;2022-11-12T17:09:55;22.10;;;18.20;;
45402;SDS011;47427;51.976;5.326;2022-11-12T17:13:36;22.20;;;17.67;;
45402;SDS011;47427;51.976;5.326;2022-11-12T17:17:17;22.90;;;18.40;;
45402;SDS011;47427;51.976;5.326;2022-11-12T17:21:05;19.10;;;17.10;;
45402;SDS011;47427;51.976;5.326;2022-11-12T17:24:48;20.30;;;16.35;;
45402;SDS011;47427;51.976;5.326;2022-11-12T17:28:28;21.73;;;15.82;;
45402;SDS011;47427;51.976;5.326;2022-11-12T17:32:09;22.42;;;18.52;;
45402;SDS011;47427;51.976;5.326;2022-11-12T17:35:49;19.27;;;16.42;;
45402;SDS011;47427;51.976;5.326;2022-11-12T17:39:29;23.88;;;17.85;;
45402;SDS011;47427;51.976;5.326;2022-11-12T17:43:09;21.38;;;17.45;;
45402;SDS011;47427;51.976;5.326;2022-11-12T17:46:49;22.80;;;19.10;;
45402;SDS011;47427;51.976;5.326;2022-11-12T17:50:29;28.45;;;23.83;;
45402;SDS011;47427;51.976;5.326;2022-11-12T17:54:09;31.80;;;22.45;;
45402;SDS011;47427;51.976;5.326;2022-11-12T17:57:50;25.42;;;20.88;;
45402;SDS011;47427;51.976;5.326;2022-11-12T18:01:30;29.08;;;21.23;;
45402;SDS011;47427;51.976;5.326;2022-11-12T18:05:12;27.70;;;22.75;;
45402;SDS011;47427;51.976;5.326;2022-11-12T18:09:00;28.70;;;22.65;;
45402;SDS011;47427;51.976;5.326;2022-11-12T18:12:43;29.92;;;23.25;;
45402;SDS011;47427;51.976;5.326;2022-11-12T18:16:25;28.25;;;23.23;;
45402;SDS011;47427;51.976;5.326;2022-11-12T18:20:07;35.75;;;26.40;;
45402;SDS011;47427;51.976;5.326;2022-11-12T18:23:48;26.60;;;22.70;;
45402;SDS011;47427;51.976;5.326;2022-11-12T18:27:28;28.73;;;22.52;;
45402;SDS011;47427;51.976;5.326;2022-11-12T18:31:09;27.45;;;21.50;;
45402;SDS011;47427;51.976;5.326;2022-11-12T18:34:51;26.77;;;21.65;;
45402;SDS011;47427;51.976;5.326;2022-11-12T18:38:34;28.48;;;21.08;;
45402;SDS011;47427;51.976;5.326;2022-11-12T18:42:15;26.83;;;20.95;;
45402;SDS011;47427;51.976;5.326;2022-11-12T18:45:55;28.33;;;22.02;;
45402;SDS011;47427;51.976;5.326;2022-11-12T18:49:37;51.35;;;37.42;;
45402;SDS011;47427;51.976;5.326;2022-11-12T18:53:17;46.45;;;37.45;;
45402;SDS011;47427;51.976;5.326;2022-11-12T18:56:57;51.13;;;38.40;;
45402;SDS011;47427;51.976;5.326;2022-11-12T19:00:37;47.42;;;35.70;;
45402;SDS011;47427;51.976;5.326;2022-11-12T19:04:18;46.20;;;33.70;;
45402;SDS011;47427;51.976;5.326;2022-11-12T19:07:58;47.28;;;34.90;;
45402;SDS011;47427;51.976;5.326;2022-11-12T19:11:38;40.83;;;31.05;;
45402;SDS011;47427;51.976;5.326;2022-11-12T19:15:18;47.17;;;34.58;;
45402;SDS011;47427;51.976;5.326;2022-11-12T19:18:59;39.67;;;30.55;;
45402;SDS011;47427;51.976;5.326;2022-11-12T19:22:39;41.65;;;29.92;;
45402;SDS011;47427;51.976;5.326;2022-11-12T19:26:19;50.38;;;33.08;;
45402;SDS011;47427;51.976;5.326;2022-11-12T19:30:01;46.95;;;30.63;;
45402;SDS011;47427;51.976;5.326;2022-11-12T19:33:41;49.63;;;30.83;;
45402;SDS011;47427;51.976;5.326;2022-11-12T19:37:21;42.05;;;29.88;;
45402;SDS011;47427;51.976;5.326;2022-11-12T19:41:02;36.95;;;27.60;;
45402;SDS011;47427;51.976;5.326;2022-11-12T19:44:48;40.65;;;28.60;;
45402;SDS011;47427;51.976;5.326;2022-11-12T19:48:28;43.70;;;32.85;;
45402;SDS011;47427;51.976;5.326;2022-11-12T19:52:09;85.10;;;65.35;;
45402;SDS011;47427;51.976;5.326;2022-11-12T19:55:49;69.75;;;51.03;;
45402;SDS011;47427;51.976;5.326;2022-11-12T19:59:29;68.43;;;53.30;;
45402;SDS011;47427;51.976;5.326;2022-11-12T20:03:09;74.85;;;53.45;;
45402;SDS011;47427;51.976;5.326;2022-11-12T20:06:50;52.92;;;37.90;;
45402;SDS011;47427;51.976;5.326;2022-11-12T20:10:30;48.95;;;35.17;;
45402;SDS011;47427;51.976;5.326;2022-11-12T20:14:10;46.55;;;34.42;;
45402;SDS011;47427;51.976;5.326;2022-11-12T20:17:50;60.70;;;42.90;;
45402;SDS011;47427;51.976;5.326;2022-11-12T20:21:30;68.82;;;43.15;;
45402;SDS011;47427;51.976;5.326;2022-11-12T20:25:10;117.60;;;77.82;;
45402;SDS011;47427;51.976;5.326;2022-11-12T20:28:51;64.07;;;41.50;;
45402;SDS011;47427;51.976;5.326;2022-11-12T20:32:31;82.90;;;57.00;;
45402;SDS011;47427;51.976;5.326;2022-11-12T20:36:12;60.10;;;35.55;;
45402;SDS011;47427;51.976;5.326;2022-11-12T20:43:38;98.22;;;43.90;;
45402;SDS011;47427;51.976;5.326;2022-11-12T20:47:18;90.03;;;43.17;;
45402;SDS011;47427;51.976;5.326;2022-11-12T20:51:06;79.72;;;39.97;;
45402;SDS011;47427;51.976;5.326;2022-11-12T20:55:00;66.22;;;35.67;;
45402;SDS011;47427;51.976;5.326;2022-11-12T20:58:41;43.47;;;28.00;;
45402;SDS011;47427;51.976;5.326;2022-11-12T21:02:21;50.30;;;32.05;;
45402;SDS011;47427;51.976;5.326;2022-11-12T21:06:03;63.80;;;35.33;;
45402;SDS011;47427;51.976;5.326;2022-11-12T21:09:45;46.85;;;29.90;;
45402;SDS011;47427;51.976;5.326;2022-11-12T21:13:26;40.38;;;25.55;;
45402;SDS011;47427;51.976;5.326;2022-11-12T21:17:06;41.60;;;28.77;;
45402;SDS011;47427;51.976;5.326;2022-11-12T21:20:46;42.20;;;28.55;;
45402;SDS011;47427;51.976;5.326;2022-11-12T21:24:27;48.00;;;28.95;;
45402;SDS011;47427;51.976;5.326;2022-11-12T21:28:07;39.72;;;26.90;;
45402;SDS011;47427;51.976;5.326;2022-11-12T21:31:47;31.30;;;23.30;;
45402;SDS011;47427;51.976;5.326;2022-11-12T21:35:27;33.55;;;23.58;;
45402;SDS011;47427;51.976;5.326;2022-11-12T21:39:08;33.13;;;22.08;;
45402;SDS011;47427;51.976;5.326;2022-11-12T21:42:50;42.30;;;29.75;;
45402;SDS011;47427;51.976;5.326;2022-11-12T21:46:31;47.28;;;29.70;;
45402;SDS011;47427;51.976;5.326;2022-11-12T21:50:11;36.40;;;23.83;;
45402;SDS011;47427;51.976;5.326;2022-11-12T21:54:01;36.80;;;24.63;;
45402;SDS011;47427;51.976;5.326;2022-11-12T21:57:44;36.95;;;24.08;;
45402;SDS011;47427;51.976;5.326;2022-11-12T22:01:25;25.58;;;19.17;;
45402;SDS011;47427;51.976;5.326;2022-11-12T22:05:08;26.77;;;18.83;;
45402;SDS011;47427;51.976;5.326;2022-11-12T22:08:50;26.13;;;17.67;;
45402;SDS011;47427;51.976;5.326;2022-11-12T22:12:33;23.38;;;17.50;;
45402;SDS011;47427;51.976;5.326;2022-11-12T22:16:15;25.00;;;17.00;;
45402;SDS011;47427;51.976;5.326;2022-11-12T22:20:02;26.63;;;19.70;;
45402;SDS011;47427;51.976;5.326;2022-11-12T22:23:44;23.05;;;17.80;;
45402;SDS011;47427;51.976;5.326;2022-11-12T22:27:26;27.88;;;20.10;;
45402;SDS011;47427;51.976;5.326;2022-11-12T22:31:15;26.42;;;18.58;;
45402;SDS011;47427;51.976;5.326;2022-11-12T22:35:02;26.50;;;17.92;;
45402;SDS011;47427;51.976;5.326;2022-11-12T22:38:44;29.17;;;19.10;;
45402;SDS011;47427;51.976;5.326;2022-11-12T22:42:27;28.15;;;18.98;;
45402;SDS011;47427;51.976;5.326;2022-11-12T22:46:09;26.00;;;17.33;;
45402;SDS011;47427;51.976;5.326;2022-11-12T22:49:53;26.17;;;17.80;;
45402;SDS011;47427;51.976;5.326;2022-11-12T22:53:33;23.05;;;16.63;;
45402;SDS011;47427;51.976;5.326;2022-11-12T22:57:13;25.63;;;16.85;;
45402;SDS011;47427;51.976;5.326;2022-11-12T23:00:54;24.02;;;17.00;;
45402;SDS011;47427;51.976;5.326;2022-11-12T23:04:36;25.20;;;17.55;;
45402;SDS011;47427;51.976;5.326;2022-11-12T23:08:17;24.80;;;16.02;;
45402;SDS011;47427;51.976;5.326;2022-11-12T23:11:58;28.75;;;18.35;;
45402;SDS011;47427;51.976;5.326;2022-11-12T23:15:43;27.30;;;18.38;;
45402;SDS011;47427;51.976;5.326;2022-11-12T23:19:25;33.75;;;20.52;;
45402;SDS011;47427;51.976;5.326;2022-11-12T23:23:07;30.42;;;17.88;;
45402;SDS011;47427;51.976;5.326;2022-11-12T23:26:48;33.50;;;19.92;;
45402;SDS011;47427;51.976;5.326;2022-11-12T23:30:28;31.88;;;20.35;;
45402;SDS011;47427;51.976;5.326;2022-11-12T23:34:09;31.40;;;20.48;;
45402;SDS011;47427;51.976;5.326;2022-11-12T23:37:51;34.42;;;22.08;;
45402;SDS011;47427;51.976;5.326;2022-11-12T23:41:31;31.65;;;21.23;;
45402;SDS011;47427;51.976;5.326;2022-11-12T23:45:12;33.30;;;21.52;;
45402;SDS011;47427;51.976;5.326;2022-11-12T23:48:52;26.63;;;19.42;;
45402;SDS011;47427;51.976;5.326;2022-11-12T23:52:32;34.08;;;20.95;;
45402;SDS011;47427;51.976;5.326;2022-11-12T23:56:13;24.98;;;17.92;;
45402;SDS011;47427;51.976;5.326;2022-11-12T23:59:55;26.05;;;17.50;;
